Airfield :
LOGIN :

Register | Disclaimer

   EN    FR    IT 

 










Legend :    VFR   Marginal VFR   IFR   Intensive IFR   Very Intensive IFR
Visi :
Ceiling :
>= 8 km
>= 3000ft
5 to 8 km
1000 to 3000 ft
1500m to 5 km
500 to 1000 ft
800 to 1500m
200 to 500 ft
< 800m
< 200 ft
Symbols :   Thunderstorms  Fog  Heavy snow  Heavy precipitations  Wind > 20 kt
SIGMETs :     Misc.  Thunderstorms  Icing  Turbulence  Mountain Waves  Volcanic Ashes






- Airport Elevation : 782 ft
- IATA code : BGY


LIME - Orio al Serio International - Bergamo

CURRENT METAR :
  • 260220Z VRB02KT 9999 VCTS SCT040CB BKN050 21/14 Q1011 TEMPO TSRA

EXPIRED METARs :
  • 260150Z 01008KT 330V040 9999 SCT055CB 21/14 Q1010 RETS NOSIG
  • 260120Z 36009KT 330V030 9999 TS FEW050CB BKN055 21/14 Q1011 NOSIG
  • 260050Z 36007KT 320V050 9999 FEW050CB BKN055 22/14 Q1011 TEMPO TS
  • 260020Z 02011KT 340V040 9999 FEW070CB 22/14 Q1011 TEMPO TS
  • 252350Z 02009KT 9999 SCT080 22/14 Q1011 NOSIG

TAF TAF LIME
Valid from the 26 at 00:00 until the 27 at 00:00 UTC


252300Z 2600/2624 VRB05KT 9999 SCT050
TEMPO 2600/2605 TSRA
TEMPO 2616/2624 4000 TSRA



MET'MAP, your aeronautical weather chart ! - Copyright ORBIFLY December 2007 - Disclaimer

ORBIFLY MET'MAP TEAM :

Programming & Development : Alexandra Zaïnal
Concept & original design : Baudouin d'Aumeries
Assistance for programming : Marc-Olivier Méhu
Technical & hardware support : Manuel Goepfert

Contact : metmap@orbifly.com




SOURCES & CREDITS :

   NOAA